createdAt,value
2019-03-13T00:00:53.757Z,5.11
2019-03-13T00:02:03.589Z,5.11
2019-03-13T00:03:12.367Z,5.12
2019-03-13T00:04:20.655Z,5.12
2019-03-13T00:05:29.032Z,5.11
2019-03-13T00:06:37.224Z,5.11
2019-03-13T00:07:45.286Z,5.11
2019-03-13T00:08:53.344Z,5.11
2019-03-13T00:10:01.664Z,5.11
2019-03-13T00:11:10.063Z,5.12
2019-03-13T00:12:18.115Z,5.14
2019-03-13T00:13:26.497Z,5.14
2019-03-13T00:14:34.869Z,5.13
2019-03-13T00:15:43.069Z,5.14
2019-03-13T00:16:51.363Z,5.15
2019-03-13T00:17:59.667Z,5.14
2019-03-13T00:19:08.183Z,5.14
2019-03-13T00:20:16.582Z,5.16
2019-03-13T00:21:24.528Z,5.16
2019-03-13T00:22:32.978Z,5.17
2019-03-13T00:23:41.179Z,5.18
2019-03-13T00:24:49.438Z,5.19
2019-03-13T00:25:57.676Z,5.21
2019-03-13T00:27:05.954Z,5.22
2019-03-13T00:28:14.485Z,5.24
2019-03-13T00:29:22.579Z,5.28
2019-03-13T00:30:31.195Z,5.28
2019-03-13T00:31:39.219Z,5.26
2019-03-13T00:32:47.497Z,5.27
2019-03-13T00:33:55.888Z,5.26
2019-03-13T00:35:04.706Z,5.25
2019-03-13T00:36:13.419Z,5.26
2019-03-13T00:37:21.611Z,5.25
2019-03-13T00:38:29.809Z,5.24
2019-03-13T00:39:38.014Z,5.28
2019-03-13T00:40:46.021Z,5.24
2019-03-13T00:41:54.198Z,5.23
2019-03-13T00:43:02.573Z,5.20
2019-03-13T00:44:10.806Z,5.18
2019-03-13T00:45:18.989Z,5.17
2019-03-13T00:46:28.025Z,5.15
2019-03-13T00:47:36.218Z,5.13
2019-03-13T00:48:44.275Z,5.12
2019-03-13T00:49:52.622Z,5.15
2019-03-13T00:51:00.827Z,5.13
2019-03-13T00:52:08.915Z,5.10
2019-03-13T00:53:17.217Z,5.07
2019-03-13T00:54:25.338Z,5.06
2019-03-13T00:55:33.827Z,5.04
2019-03-13T00:56:41.818Z,5.04
2019-03-13T00:57:49.830Z,5.04
2019-03-13T00:58:58.002Z,5.04
2019-03-13T01:00:11.173Z,5.06
2019-03-13T01:01:26.902Z,5.05
2019-03-13T01:02:36.541Z,5.05
2019-03-13T01:03:46.482Z,5.06
2019-03-13T01:04:56.113Z,5.03
2019-03-13T01:06:11.791Z,5.03
2019-03-13T01:07:19.889Z,5.02
2019-03-13T01:08:27.988Z,5.00
2019-03-13T01:09:36.180Z,5.02
2019-03-13T01:10:44.179Z,5.05
2019-03-13T01:11:52.688Z,5.06
2019-03-13T01:13:01.479Z,5.07
2019-03-13T01:14:09.786Z,5.09
2019-03-13T01:15:17.992Z,5.12
2019-03-13T01:16:26.095Z,5.13
2019-03-13T01:17:34.491Z,5.14
2019-03-13T01:18:42.688Z,5.16
2019-03-13T01:19:51.098Z,5.17
2019-03-13T01:20:59.044Z,5.15
2019-03-13T01:22:07.494Z,5.15
2019-03-13T01:23:15.853Z,5.17
2019-03-13T01:24:23.808Z,5.19
2019-03-13T01:25:31.985Z,5.20
2019-03-13T01:26:40.180Z,5.23
2019-03-13T01:27:48.388Z,5.23
2019-03-13T01:28:56.481Z,5.25
2019-03-13T01:30:06.527Z,5.27
2019-03-13T01:31:20.106Z,5.27
2019-03-13T01:32:35.942Z,5.29
2019-03-13T01:33:44.048Z,5.27
2019-03-13T01:34:53.762Z,5.24
2019-03-13T01:36:05.717Z,5.23
2019-03-13T01:37:13.951Z,5.24
2019-03-13T01:38:21.962Z,5.24
2019-03-13T01:39:30.574Z,5.24
2019-03-13T01:40:38.798Z,5.26
2019-03-13T01:41:46.845Z,5.25
2019-03-13T01:42:54.941Z,5.26
2019-03-13T01:44:03.143Z,5.24
2019-03-13T01:45:12.461Z,5.25
2019-03-13T01:46:20.771Z,5.24
2019-03-13T01:47:29.174Z,5.26
2019-03-13T01:48:37.398Z,5.26
2019-03-13T01:49:45.402Z,5.24
2019-03-13T01:50:53.694Z,5.23
2019-03-13T01:52:01.860Z,5.24
2019-03-13T01:53:09.874Z,5.24
2019-03-13T01:54:17.691Z,5.22
2019-03-13T01:55:25.875Z,5.22
2019-03-13T01:56:34.055Z,5.20
2019-03-13T01:57:41.963Z,5.21
2019-03-13T01:58:49.964Z,5.19
2019-03-13T01:59:58.247Z,5.20
2019-03-13T02:01:06.815Z,5.20
2019-03-13T02:02:14.853Z,5.20
2019-03-13T02:03:23.267Z,5.20
2019-03-13T02:04:31.524Z,5.18
2019-03-13T02:05:39.692Z,5.18
2019-03-13T02:06:47.848Z,5.18
2019-03-13T02:07:55.980Z,5.20
2019-03-13T02:09:05.134Z,5.20
2019-03-13T02:10:14.506Z,5.20
2019-03-13T02:11:22.702Z,5.22
2019-03-13T02:12:30.898Z,5.22
2019-03-13T02:13:39.216Z,5.21
2019-03-13T02:14:47.351Z,5.23
2019-03-13T02:15:55.387Z,5.18
2019-03-13T02:17:03.705Z,5.18
2019-03-13T02:18:11.798Z,5.19
2019-03-13T02:19:19.884Z,5.18
2019-03-13T02:20:29.383Z,5.16
2019-03-13T02:21:37.529Z,5.15
2019-03-13T02:22:45.744Z,5.16
2019-03-13T02:23:54.016Z,5.16
2019-03-13T02:25:02.008Z,5.16
2019-03-13T02:26:10.194Z,5.18
2019-03-13T02:27:18.415Z,5.18
2019-03-13T02:28:26.489Z,5.18
2019-03-13T02:29:34.703Z,5.18
2019-03-13T02:30:43.015Z,5.14
2019-03-13T02:31:51.376Z,5.14
2019-03-13T02:32:59.529Z,5.14
2019-03-13T02:34:08.119Z,5.14
2019-03-13T02:35:16.131Z,5.13
2019-03-13T02:36:24.307Z,5.14
2019-03-13T02:37:32.785Z,5.14
2019-03-13T02:38:41.349Z,5.16
2019-03-13T02:39:49.399Z,5.16
2019-03-13T02:40:57.698Z,5.16
2019-03-13T02:42:05.743Z,5.12
2019-03-13T02:43:14.124Z,5.08
2019-03-13T02:44:22.449Z,5.08
2019-03-13T02:45:30.592Z,5.10
2019-03-13T02:46:38.621Z,5.10
2019-03-13T02:47:46.720Z,5.08
2019-03-13T02:48:54.815Z,5.07
2019-03-13T02:50:02.915Z,5.07
2019-03-13T02:51:10.899Z,5.08
2019-03-13T02:52:19.318Z,5.11
2019-03-13T02:53:27.833Z,5.12
2019-03-13T02:54:36.015Z,5.12
2019-03-13T02:55:44.116Z,5.14
2019-03-13T02:56:52.414Z,5.13
2019-03-13T02:58:00.613Z,5.13
2019-03-13T02:59:08.660Z,5.15
2019-03-13T03:00:28.198Z,5.13
2019-03-13T03:01:57.819Z,5.15
2019-03-13T03:03:07.720Z,5.14
2019-03-13T03:04:15.585Z,5.14
2019-03-13T03:05:23.661Z,5.15
2019-03-13T03:06:31.766Z,5.16
2019-03-13T03:07:39.911Z,5.17
2019-03-13T03:08:48.007Z,5.18
2019-03-13T03:09:56.103Z,5.18
2019-03-13T03:11:04.354Z,5.18
2019-03-13T03:12:12.197Z,5.17
2019-03-13T03:13:20.289Z,5.18
2019-03-13T03:14:28.344Z,5.17
2019-03-13T03:15:37.707Z,5.19
2019-03-13T03:16:45.901Z,5.20
2019-03-13T03:17:54.122Z,5.20
2019-03-13T03:19:02.322Z,5.22
2019-03-13T03:20:14.810Z,5.22
2019-03-13T03:21:22.833Z,5.23
2019-03-13T03:22:31.165Z,5.25
2019-03-13T03:23:39.356Z,5.24
2019-03-13T03:24:47.306Z,5.25
2019-03-13T03:25:55.425Z,5.27
2019-03-13T03:27:03.634Z,5.29
2019-03-13T03:28:11.816Z,5.31
2019-03-13T03:29:19.710Z,5.34
2019-03-13T03:30:27.972Z,5.34
2019-03-13T03:31:36.176Z,5.35
2019-03-13T03:32:44.320Z,5.36
2019-03-13T03:34:02.675Z,5.37
2019-03-13T03:35:10.987Z,5.37
2019-03-13T03:36:18.845Z,5.38
2019-03-13T03:37:27.002Z,5.39
2019-03-13T03:38:35.116Z,5.41
2019-03-13T03:39:43.483Z,5.43
2019-03-13T03:40:51.526Z,5.43
2019-03-13T03:41:59.674Z,5.46
2019-03-13T03:43:07.795Z,5.46
2019-03-13T03:44:15.864Z,5.46
2019-03-13T03:45:23.738Z,5.47
2019-03-13T03:46:32.202Z,5.48
2019-03-13T03:47:40.596Z,5.47
2019-03-13T03:48:48.560Z,5.48
2019-03-13T03:49:56.811Z,5.48
2019-03-13T03:51:04.911Z,5.48
2019-03-13T03:52:16.201Z,5.48
2019-03-13T03:53:24.246Z,5.47
2019-03-13T03:54:32.355Z,5.45
2019-03-13T03:55:40.345Z,5.45
2019-03-13T03:56:48.407Z,5.46
2019-03-13T03:57:56.589Z,5.48
2019-03-13T03:59:05.088Z,5.48
2019-03-13T04:00:18.514Z,5.49
2019-03-13T04:01:26.541Z,5.50
2019-03-13T04:02:34.668Z,5.52
2019-03-13T04:03:42.660Z,5.51
2019-03-13T04:04:50.628Z,5.51
2019-03-13T04:05:59.801Z,5.50
2019-03-13T04:07:08.191Z,5.48
2019-03-13T04:08:16.266Z,5.49
2019-03-13T04:09:24.108Z,5.47
2019-03-13T04:10:32.706Z,5.48
2019-03-13T04:11:40.761Z,5.49
2019-03-13T04:12:48.846Z,5.50
2019-03-13T04:13:56.852Z,5.52
2019-03-13T04:15:07.091Z,5.57
2019-03-13T04:16:15.179Z,5.57
2019-03-13T04:17:22.811Z,5.60
2019-03-13T04:18:30.999Z,5.61
2019-03-13T04:19:39.066Z,5.63
2019-03-13T04:20:47.056Z,5.65
2019-03-13T04:21:54.900Z,5.66
2019-03-13T04:23:03.146Z,5.66
2019-03-13T04:24:11.297Z,5.64
2019-03-13T04:25:31.386Z,5.61
2019-03-13T04:26:39.334Z,5.63
2019-03-13T04:27:47.415Z,5.67
2019-03-13T04:28:55.403Z,5.68
2019-03-13T04:30:03.301Z,5.71
2019-03-13T04:31:11.300Z,5.71
2019-03-13T04:32:19.290Z,5.72
2019-03-13T04:33:28.373Z,5.72
2019-03-13T04:34:36.848Z,5.72
2019-03-13T04:35:44.943Z,5.69
2019-03-13T04:36:52.788Z,5.71
2019-03-13T04:38:00.915Z,5.72
2019-03-13T04:39:09.111Z,5.72
2019-03-13T04:40:17.289Z,5.74
2019-03-13T04:41:25.423Z,5.78
2019-03-13T04:42:33.633Z,5.78
2019-03-13T04:43:41.689Z,5.80
2019-03-13T04:44:49.721Z,5.80
2019-03-13T04:45:57.918Z,5.84
2019-03-13T04:47:06.495Z,5.84
2019-03-13T04:48:14.320Z,5.84
2019-03-13T04:49:22.598Z,5.83
2019-03-13T04:50:30.620Z,5.83
2019-03-13T04:51:38.728Z,5.83
2019-03-13T04:52:46.773Z,5.84
2019-03-13T04:53:54.708Z,5.84
2019-03-13T04:55:02.565Z,5.84
2019-03-13T04:56:10.604Z,5.84
2019-03-13T04:57:18.448Z,5.86
2019-03-13T04:58:26.567Z,5.88
2019-03-13T04:59:36.079Z,5.92
2019-03-13T05:00:43.887Z,5.90
2019-03-13T05:01:52.395Z,5.93
2019-03-13T05:03:00.393Z,5.93
2019-03-13T05:04:08.357Z,5.96
2019-03-13T05:05:40.370Z,5.98
2019-03-13T05:06:48.409Z,5.98
2019-03-13T05:07:56.458Z,5.98
2019-03-13T05:09:06.388Z,5.99
2019-03-13T05:10:14.496Z,6.01
2019-03-13T05:11:22.350Z,6.04
2019-03-13T05:12:30.456Z,6.05
2019-03-13T05:13:38.570Z,6.07
2019-03-13T05:14:47.757Z,6.07
2019-03-13T05:15:55.781Z,6.06
2019-03-13T05:17:03.686Z,6.09
2019-03-13T05:18:11.965Z,6.08
2019-03-13T05:19:19.903Z,6.10
2019-03-13T05:20:28.174Z,6.12
2019-03-13T05:21:36.470Z,6.14
2019-03-13T05:22:44.400Z,6.14
2019-03-13T05:23:52.477Z,6.13
2019-03-13T05:25:00.548Z,6.12
2019-03-13T05:26:08.762Z,6.13
2019-03-13T05:27:16.738Z,6.16
2019-03-13T05:28:24.834Z,6.17
2019-03-13T05:29:32.927Z,6.20
2019-03-13T05:30:41.042Z,6.22
2019-03-13T05:31:49.145Z,6.23
2019-03-13T05:32:57.647Z,6.23
2019-03-13T05:34:05.623Z,6.24
2019-03-13T05:35:13.625Z,6.21
2019-03-13T05:36:21.928Z,6.21
2019-03-13T05:37:29.917Z,6.24
2019-03-13T05:38:37.941Z,6.28
2019-03-13T05:39:46.114Z,6.30
2019-03-13T05:40:55.926Z,6.33
2019-03-13T05:42:07.218Z,6.38
2019-03-13T05:43:15.353Z,6.39
2019-03-13T05:44:23.825Z,6.40
2019-03-13T05:45:31.826Z,6.42
2019-03-13T05:46:39.930Z,6.42
2019-03-13T05:47:48.120Z,6.46
2019-03-13T05:48:55.982Z,6.47
2019-03-13T05:50:05.085Z,6.50
2019-03-13T05:51:12.937Z,6.51
2019-03-13T05:52:21.197Z,6.51
2019-03-13T05:53:29.685Z,6.51
2019-03-13T05:54:38.008Z,6.51
2019-03-13T05:55:46.321Z,6.52
2019-03-13T05:56:54.288Z,6.54
2019-03-13T05:58:02.212Z,6.57
2019-03-13T05:59:10.218Z,6.60
2019-03-13T06:00:20.154Z,6.61
2019-03-13T06:01:28.118Z,6.62
2019-03-13T06:02:36.338Z,6.63
2019-03-13T06:03:44.562Z,6.62
2019-03-13T06:04:52.498Z,6.63
2019-03-13T06:06:00.439Z,6.66
2019-03-13T06:07:08.385Z,6.67
2019-03-13T06:08:18.483Z,6.69
2019-03-13T06:09:26.559Z,6.72
2019-03-13T06:10:34.765Z,6.72
2019-03-13T06:11:43.139Z,6.75
2019-03-13T06:12:51.189Z,6.76
2019-03-13T06:13:59.546Z,6.78
2019-03-13T06:15:14.119Z,6.79
2019-03-13T06:16:22.290Z,6.80
2019-03-13T06:17:30.390Z,6.84
2019-03-13T06:18:38.608Z,6.84
2019-03-13T06:19:46.621Z,6.87
2019-03-13T06:20:54.953Z,6.89
2019-03-13T06:22:02.732Z,6.89
2019-03-13T06:23:11.017Z,6.90
2019-03-13T06:24:19.127Z,6.90
2019-03-13T06:25:27.364Z,6.91
2019-03-13T06:26:35.509Z,6.91
2019-03-13T06:27:46.390Z,6.91
2019-03-13T06:28:53.748Z,6.91
2019-03-13T06:30:02.049Z,6.95
2019-03-13T06:31:10.416Z,6.94
2019-03-13T06:32:18.615Z,6.97
2019-03-13T06:33:26.553Z,6.98
2019-03-13T06:34:34.752Z,6.95
2019-03-13T06:35:42.810Z,6.97
2019-03-13T06:36:50.736Z,6.98
2019-03-13T06:37:59.032Z,7.00
2019-03-13T06:39:08.376Z,7.00
2019-03-13T06:40:23.121Z,6.97
2019-03-13T06:41:31.213Z,6.94
2019-03-13T06:42:40.098Z,6.91
2019-03-13T06:43:48.740Z,6.91
2019-03-13T06:44:57.137Z,6.90
2019-03-13T06:46:05.537Z,6.93
2019-03-13T06:47:13.934Z,6.92
2019-03-13T06:48:22.424Z,6.93
2019-03-13T06:49:30.788Z,6.93
2019-03-13T06:50:38.760Z,6.91
2019-03-13T06:51:46.902Z,6.94
2019-03-13T06:52:54.994Z,6.93
2019-03-13T06:54:03.295Z,6.98
2019-03-13T06:55:11.474Z,7.01
2019-03-13T06:56:19.639Z,7.02
2019-03-13T06:57:27.799Z,7.05
2019-03-13T06:58:37.573Z,7.07
2019-03-13T06:59:59.711Z,7.12
2019-03-13T07:01:18.006Z,7.15
2019-03-13T07:02:27.874Z,7.17
2019-03-13T07:03:41.703Z,7.17
2019-03-13T07:05:00.393Z,7.17
2019-03-13T07:06:10.389Z,7.16
2019-03-13T07:07:20.231Z,7.19
2019-03-13T07:08:30.496Z,7.22
2019-03-13T07:09:49.224Z,7.22
2019-03-13T07:11:01.857Z,7.21
2019-03-13T07:12:17.500Z,7.24
2019-03-13T07:13:43.622Z,7.26
2019-03-13T07:14:53.463Z,7.28
2019-03-13T07:16:19.683Z,7.31
2019-03-13T07:17:35.559Z,7.34
2019-03-13T07:18:48.278Z,7.35
2019-03-13T07:20:06.824Z,7.35
2019-03-13T07:21:25.482Z,7.37
2019-03-13T07:22:50.444Z,7.39
2019-03-13T07:23:59.978Z,7.36
2019-03-13T07:25:14.218Z,7.35
2019-03-13T07:26:27.154Z,7.33
2019-03-13T07:27:40.035Z,7.32
2019-03-13T07:29:11.672Z,7.33
2019-03-13T07:30:17.227Z,7.34
2019-03-13T07:31:31.090Z,7.29
2019-03-13T07:32:40.929Z,7.32
2019-03-13T07:34:07.263Z,7.34
2019-03-13T07:35:16.945Z,7.31
2019-03-13T07:36:38.691Z,7.30
2019-03-13T07:37:57.422Z,7.33
2019-03-13T07:39:09.109Z,7.33
2019-03-13T07:40:18.742Z,7.34
2019-03-13T07:41:31.569Z,7.36
2019-03-13T07:42:57.457Z,7.37
2019-03-13T07:44:19.349Z,7.40
2019-03-13T07:45:31.872Z,7.42
2019-03-13T07:46:44.319Z,7.46
2019-03-13T07:47:57.493Z,7.50
2019-03-13T07:49:14.363Z,7.54
2019-03-13T07:50:24.031Z,7.54
2019-03-13T07:51:36.523Z,7.58
2019-03-13T07:52:46.367Z,7.63
2019-03-13T07:54:02.342Z,7.68
2019-03-13T07:55:21.457Z,7.71
2019-03-13T07:56:40.096Z,7.73
2019-03-13T07:58:07.898Z,7.78
2019-03-13T07:59:24.835Z,7.78
2019-03-13T08:00:37.647Z,7.80
2019-03-13T08:01:47.787Z,7.83
2019-03-13T08:02:57.520Z,7.88
2019-03-13T08:04:10.510Z,7.92
2019-03-13T08:05:20.237Z,7.92
2019-03-13T08:06:32.797Z,7.96
2019-03-13T08:07:54.785Z,8.01
2019-03-13T08:09:16.687Z,8.04
2019-03-13T08:10:24.387Z,8.09
2019-03-13T08:11:36.971Z,8.09
2019-03-13T08:12:54.140Z,8.10
2019-03-13T08:14:18.846Z,8.11
2019-03-13T08:15:28.418Z,8.15
2019-03-13T08:16:56.682Z,8.19
2019-03-13T08:18:12.548Z,8.21
2019-03-13T08:19:38.447Z,8.27
2019-03-13T08:20:46.176Z,8.31
2019-03-13T08:21:54.022Z,8.39
2019-03-13T08:23:09.941Z,8.43
2019-03-13T08:24:23.850Z,8.45
2019-03-13T08:25:42.526Z,8.46
2019-03-13T08:26:55.425Z,8.53
2019-03-13T08:28:08.700Z,8.60
2019-03-13T08:29:18.594Z,8.64
2019-03-13T08:30:43.683Z,8.68
2019-03-13T08:32:02.542Z,8.70
2019-03-13T08:33:15.647Z,8.74
2019-03-13T08:34:34.489Z,8.74
2019-03-13T08:35:59.665Z,8.79
2019-03-13T08:37:24.478Z,8.83
2019-03-13T08:38:40.660Z,8.87
2019-03-13T08:39:56.870Z,8.88
2019-03-13T08:41:25.629Z,8.95
2019-03-13T08:42:41.580Z,8.99
2019-03-13T08:44:09.694Z,9.03
2019-03-13T08:45:29.290Z,9.02
2019-03-13T08:46:46.171Z,9.04
2019-03-13T08:48:02.576Z,9.03
2019-03-13T08:49:10.732Z,9.04
2019-03-13T08:50:23.133Z,9.06
2019-03-13T08:51:48.330Z,9.08
2019-03-13T08:53:09.940Z,9.10
2019-03-13T08:54:20.809Z,9.13
2019-03-13T08:55:30.453Z,9.13
2019-03-13T08:56:50.639Z,9.15
2019-03-13T08:58:16.477Z,9.16
2019-03-13T08:59:42.067Z,9.16
2019-03-13T09:00:51.822Z,9.17
2019-03-13T09:02:04.405Z,9.26
2019-03-13T09:03:30.392Z,9.24
2019-03-13T09:04:56.508Z,9.23
2019-03-13T09:06:24.934Z,9.17
2019-03-13T09:07:43.472Z,9.14
2019-03-13T09:08:56.842Z,9.20
2019-03-13T09:10:10.470Z,9.25
2019-03-13T09:11:24.147Z,9.24
2019-03-13T09:12:36.645Z,9.27
2019-03-13T09:14:01.692Z,9.32
2019-03-13T09:15:12.987Z,9.35
2019-03-13T09:16:25.427Z,9.35
2019-03-13T09:17:51.798Z,9.38
2019-03-13T09:19:01.473Z,9.47
2019-03-13T09:20:18.326Z,9.52
2019-03-13T09:21:37.078Z,9.56
2019-03-13T09:23:00.020Z,9.55
2019-03-13T09:24:15.841Z,9.51
2019-03-13T09:25:26.256Z,9.51
2019-03-13T09:26:48.062Z,9.52
2019-03-13T09:28:00.727Z,9.47
2019-03-13T09:29:21.705Z,9.49
2019-03-13T09:30:40.156Z,9.46
2019-03-13T09:31:53.645Z,9.43
2019-03-13T09:33:09.619Z,9.39
2019-03-13T09:34:19.386Z,9.38
2019-03-13T09:35:29.390Z,9.40
2019-03-13T09:36:50.544Z,9.40
2019-03-13T09:38:13.145Z,9.42
2019-03-13T09:39:22.781Z,9.42
2019-03-13T09:40:33.350Z,9.39
2019-03-13T09:41:43.193Z,9.38
2019-03-13T09:43:02.531Z,9.42
2019-03-13T09:44:15.018Z,9.34
2019-03-13T09:45:24.862Z,9.38
2019-03-13T09:46:32.967Z,9.37
2019-03-13T09:47:45.155Z,9.34
2019-03-13T09:49:10.181Z,9.35
2019-03-13T09:50:18.188Z,9.33
2019-03-13T09:51:44.099Z,9.29
2019-03-13T09:53:03.771Z,9.31
2019-03-13T09:54:28.678Z,9.30
2019-03-13T09:55:38.331Z,9.28
2019-03-13T09:57:03.719Z,9.33
2019-03-13T09:58:11.615Z,9.30
2019-03-13T09:59:21.376Z,9.28
2019-03-13T10:00:36.996Z,9.23
2019-03-13T10:01:53.734Z,9.27
2019-03-13T10:03:03.598Z,9.23
2019-03-13T10:04:29.383Z,9.17
2019-03-13T10:05:47.923Z,9.16
2019-03-13T10:07:09.936Z,9.13
2019-03-13T10:08:28.499Z,9.09
2019-03-13T10:09:38.109Z,9.04
2019-03-13T10:10:56.350Z,9.01
2019-03-13T10:12:06.595Z,8.97
2019-03-13T10:13:14.385Z,8.97
2019-03-13T10:14:22.377Z,8.98
2019-03-13T10:15:37.928Z,8.98
2019-03-13T10:17:09.848Z,8.95
2019-03-13T10:18:30.640Z,8.93
2019-03-13T10:19:56.657Z,8.94
2019-03-13T10:21:09.339Z,8.95
2019-03-13T10:22:17.340Z,8.88
2019-03-13T10:23:30.123Z,8.90
2019-03-13T10:24:38.122Z,8.86
2019-03-13T10:25:49.237Z,8.84
2019-03-13T10:27:04.895Z,8.85
2019-03-13T10:28:14.730Z,8.86
2019-03-13T10:29:24.353Z,8.84
2019-03-13T10:30:44.600Z,8.83
2019-03-13T10:32:06.436Z,8.86
2019-03-13T10:33:16.202Z,8.84
2019-03-13T10:34:41.872Z,8.84
2019-03-13T10:35:57.489Z,8.86
2019-03-13T10:37:10.246Z,8.82
2019-03-13T10:38:35.663Z,8.83
2019-03-13T10:39:54.198Z,8.84
2019-03-13T10:41:04.128Z,8.84
2019-03-13T10:42:29.063Z,8.83
2019-03-13T10:43:55.179Z,8.85
2019-03-13T10:45:16.800Z,8.79
2019-03-13T10:46:27.452Z,8.79
2019-03-13T10:47:46.354Z,8.82
2019-03-13T10:49:08.330Z,8.84
2019-03-13T10:50:34.726Z,8.80
2019-03-13T10:52:00.593Z,8.76
2019-03-13T10:53:11.517Z,8.77
2019-03-13T10:54:28.751Z,8.77
2019-03-13T10:55:57.436Z,8.72
2019-03-13T10:57:09.661Z,8.68
2019-03-13T10:58:25.399Z,8.68
2019-03-13T10:59:35.605Z,8.70
2019-03-13T11:00:45.841Z,8.74
2019-03-13T11:01:55.927Z,8.71
2019-03-13T11:03:17.537Z,8.71
2019-03-13T11:04:27.021Z,8.69
2019-03-13T11:05:36.950Z,8.67
2019-03-13T11:06:58.501Z,8.69
2019-03-13T11:08:13.874Z,8.70
2019-03-13T11:09:26.466Z,8.77
2019-03-13T11:10:38.783Z,8.78
2019-03-13T11:11:58.589Z,8.76
2019-03-13T11:13:08.293Z,8.76
2019-03-13T11:14:21.096Z,8.78
2019-03-13T11:15:42.973Z,8.76
2019-03-13T11:16:58.802Z,8.74
2019-03-13T11:18:08.425Z,8.73
2019-03-13T11:19:27.544Z,8.75
2019-03-13T11:20:51.561Z,8.73
2019-03-13T11:22:16.647Z,8.73
2019-03-13T11:23:26.277Z,8.75
2019-03-13T11:24:48.211Z,8.75
2019-03-13T11:26:19.903Z,8.80
2019-03-13T11:27:45.388Z,8.82
2019-03-13T11:29:05.902Z,8.82
2019-03-13T11:30:33.959Z,8.83
2019-03-13T11:31:59.886Z,8.82
2019-03-13T11:33:12.427Z,8.79
2019-03-13T11:34:21.909Z,8.78
2019-03-13T11:35:31.446Z,8.81
2019-03-13T11:36:57.977Z,8.78
2019-03-13T11:38:10.906Z,8.80
2019-03-13T11:39:28.132Z,8.76
2019-03-13T11:40:54.434Z,8.73
2019-03-13T11:42:19.127Z,8.71
2019-03-13T11:43:46.858Z,8.72
2019-03-13T11:44:59.393Z,8.70
2019-03-13T11:46:09.609Z,8.67
2019-03-13T11:47:21.986Z,8.64
2019-03-13T11:48:29.799Z,8.61
2019-03-13T11:49:51.668Z,8.62
2019-03-13T11:51:17.775Z,8.61
2019-03-13T11:52:31.867Z,8.64
2019-03-13T11:53:41.345Z,8.60
2019-03-13T11:54:49.337Z,8.62
2019-03-13T11:56:15.261Z,8.63
2019-03-13T11:57:41.364Z,8.64
2019-03-13T11:58:59.995Z,8.64
2019-03-13T12:00:17.140Z,8.66
2019-03-13T12:01:46.109Z,8.64
2019-03-13T12:03:05.433Z,8.65
2019-03-13T12:04:15.044Z,8.60
2019-03-13T12:05:27.619Z,8.58
2019-03-13T12:06:37.248Z,8.61
2019-03-13T12:07:49.734Z,8.61
2019-03-13T12:09:10.765Z,8.62
2019-03-13T12:10:27.091Z,8.62
2019-03-13T12:11:52.624Z,8.63
2019-03-13T12:13:15.736Z,8.61
2019-03-13T12:14:34.438Z,8.64
2019-03-13T12:15:53.292Z,8.66
2019-03-13T12:17:05.844Z,8.64
2019-03-13T12:18:27.682Z,8.64
2019-03-13T12:19:37.230Z,8.61
2019-03-13T12:21:00.421Z,8.59
2019-03-13T12:22:11.135Z,8.58
2019-03-13T12:23:20.830Z,8.58
2019-03-13T12:24:30.446Z,8.59
2019-03-13T12:25:40.617Z,8.56
2019-03-13T12:26:59.765Z,8.56
2019-03-13T12:28:27.475Z,8.55
2019-03-13T12:29:46.019Z,8.52
2019-03-13T12:30:55.778Z,8.49
2019-03-13T12:32:21.938Z,8.54
2019-03-13T12:33:35.274Z,8.56
2019-03-13T12:34:43.871Z,8.54
2019-03-13T12:36:09.888Z,8.54
2019-03-13T12:37:19.732Z,8.56
2019-03-13T12:38:27.626Z,8.53
2019-03-13T12:39:37.221Z,8.57
2019-03-13T12:40:44.854Z,8.62
2019-03-13T12:41:52.595Z,8.59
2019-03-13T12:43:02.110Z,8.59
2019-03-13T12:44:11.610Z,8.61
2019-03-13T12:45:21.153Z,8.63
2019-03-13T12:46:30.763Z,8.63
2019-03-13T12:47:39.164Z,8.62
2019-03-13T12:49:03.651Z,8.63
2019-03-13T12:50:17.678Z,8.65
2019-03-13T12:51:43.372Z,8.68
2019-03-13T12:52:56.741Z,8.71
2019-03-13T12:54:16.767Z,8.71
2019-03-13T12:55:27.469Z,8.72
2019-03-13T12:56:35.257Z,8.74
2019-03-13T12:57:45.167Z,8.76
2019-03-13T12:59:02.221Z,8.75
2019-03-13T13:00:18.371Z,8.77
2019-03-13T13:01:27.979Z,8.81
2019-03-13T13:02:41.734Z,8.83
2019-03-13T13:04:08.153Z,8.90
2019-03-13T13:05:15.915Z,8.93
2019-03-13T13:06:41.764Z,8.96
2019-03-13T13:07:52.000Z,8.98
2019-03-13T13:09:16.661Z,9.04
2019-03-13T13:10:42.750Z,9.06
2019-03-13T13:12:05.660Z,9.09
2019-03-13T13:13:21.818Z,9.15
2019-03-13T13:14:34.258Z,9.20
2019-03-13T13:15:46.549Z,9.24
2019-03-13T13:17:01.997Z,9.29
2019-03-13T13:18:14.368Z,9.36
2019-03-13T13:19:22.395Z,9.43
2019-03-13T13:20:30.527Z,9.51
2019-03-13T13:21:38.697Z,9.56
2019-03-13T13:22:46.579Z,9.57
2019-03-13T13:23:54.654Z,9.58
2019-03-13T13:25:02.651Z,9.60
2019-03-13T13:26:10.750Z,9.68
2019-03-13T13:27:18.718Z,9.87
2019-03-13T13:28:26.892Z,10.02
2019-03-13T13:29:34.878Z,10.19
2019-03-13T13:30:43.068Z,10.38
2019-03-13T13:31:51.077Z,10.53
2019-03-13T13:32:59.343Z,10.62
2019-03-13T13:34:07.499Z,10.73
2019-03-13T13:35:15.783Z,10.78
2019-03-13T13:36:26.836Z,10.87
2019-03-13T13:37:34.291Z,10.92
2019-03-13T13:38:42.615Z,11.00
2019-03-13T13:39:50.730Z,11.11
2019-03-13T13:40:59.016Z,11.23
2019-03-13T13:42:08.439Z,11.27
2019-03-13T13:43:16.520Z,11.29
2019-03-13T13:44:25.248Z,11.31
2019-03-13T13:45:37.843Z,11.35
2019-03-13T13:46:45.836Z,11.38
2019-03-13T13:47:54.045Z,11.36
2019-03-13T13:49:02.301Z,11.32
2019-03-13T13:50:11.057Z,11.33
2019-03-13T13:51:19.359Z,11.33
2019-03-13T13:52:27.751Z,11.35
2019-03-13T13:53:36.271Z,11.39
2019-03-13T13:54:44.379Z,11.39
2019-03-13T13:55:52.477Z,11.39
2019-03-13T13:57:00.779Z,11.40
2019-03-13T13:58:09.102Z,11.35
2019-03-13T13:59:17.392Z,11.32
2019-03-13T14:00:26.203Z,11.28
2019-03-13T14:01:34.379Z,11.29
2019-03-13T14:02:42.338Z,11.27
2019-03-13T14:03:50.324Z,11.28
2019-03-13T14:04:59.408Z,11.26
2019-03-13T14:06:08.223Z,11.23
2019-03-13T14:07:16.309Z,11.19
2019-03-13T14:08:24.643Z,11.22
2019-03-13T14:09:32.611Z,11.19
2019-03-13T14:10:40.908Z,11.19
2019-03-13T14:11:49.178Z,11.16
2019-03-13T14:12:57.702Z,11.20
2019-03-13T14:14:06.021Z,11.24
2019-03-13T14:15:16.088Z,11.29
2019-03-13T14:16:24.247Z,11.30
2019-03-13T14:17:32.201Z,11.27
2019-03-13T14:18:40.270Z,11.26
2019-03-13T14:19:48.299Z,11.25
2019-03-13T14:20:56.402Z,11.24
2019-03-13T14:22:04.850Z,11.29
2019-03-13T14:23:13.148Z,11.39
2019-03-13T14:24:21.344Z,11.48
2019-03-13T14:25:29.833Z,11.54
2019-03-13T14:26:38.247Z,11.54
2019-03-13T14:27:46.245Z,11.52
2019-03-13T14:28:54.095Z,11.55
2019-03-13T14:30:02.054Z,11.55
2019-03-13T14:31:10.570Z,11.55
2019-03-13T14:32:18.983Z,11.56
2019-03-13T14:33:27.158Z,11.50
2019-03-13T14:34:35.587Z,11.46
2019-03-13T14:35:46.206Z,11.44
2019-03-13T14:36:54.028Z,11.36
2019-03-13T14:38:02.845Z,11.36
2019-03-13T14:39:10.940Z,11.35
2019-03-13T14:40:21.209Z,11.33
2019-03-13T14:41:30.071Z,11.30
2019-03-13T14:42:38.101Z,11.22
2019-03-13T14:43:46.459Z,11.13
2019-03-13T14:44:54.653Z,11.07
2019-03-13T14:46:03.718Z,11.00
2019-03-13T14:47:12.799Z,10.92
2019-03-13T14:48:21.407Z,10.88
2019-03-13T14:49:30.584Z,10.85
2019-03-13T14:50:39.300Z,10.80
2019-03-13T14:51:47.744Z,10.78
2019-03-13T14:52:57.777Z,10.78
2019-03-13T14:54:08.246Z,10.78
2019-03-13T14:55:19.161Z,10.70
2019-03-13T14:56:27.144Z,10.70
2019-03-13T14:57:35.281Z,10.73
2019-03-13T14:58:43.589Z,10.70
2019-03-13T14:59:51.585Z,10.65
2019-03-13T15:00:59.832Z,10.62
2019-03-13T15:02:08.127Z,10.56
2019-03-13T15:03:16.127Z,10.54
2019-03-13T15:04:24.423Z,10.55
2019-03-13T15:05:32.814Z,10.58
2019-03-13T15:06:41.138Z,10.52
2019-03-13T15:07:49.381Z,10.49
2019-03-13T15:08:57.322Z,10.51
2019-03-13T15:10:10.065Z,10.38
2019-03-13T15:11:18.128Z,10.31
2019-03-13T15:12:26.187Z,10.19
2019-03-13T15:13:36.132Z,10.22
2019-03-13T15:14:44.114Z,10.26
2019-03-13T15:15:52.336Z,10.30
2019-03-13T15:17:00.808Z,10.29
2019-03-13T15:18:09.063Z,10.26
2019-03-13T15:19:17.163Z,10.23
2019-03-13T15:20:30.379Z,10.19
2019-03-13T15:21:38.777Z,10.09
2019-03-13T15:22:47.151Z,10.06
2019-03-13T15:23:55.618Z,10.10
2019-03-13T15:25:04.797Z,10.10
2019-03-13T15:26:12.903Z,10.13
2019-03-13T15:27:21.174Z,10.09
2019-03-13T15:28:30.018Z,10.04
2019-03-13T15:29:38.399Z,10.05
2019-03-13T15:30:46.699Z,10.08
2019-03-13T15:31:54.719Z,10.08
2019-03-13T15:33:02.970Z,10.03
2019-03-13T15:34:11.073Z,10.01
2019-03-13T15:35:19.415Z,10.03
2019-03-13T15:36:27.821Z,10.05
2019-03-13T15:37:36.223Z,10.03
2019-03-13T15:38:44.012Z,10.01
2019-03-13T15:39:52.490Z,10.03
2019-03-13T15:41:00.572Z,10.02
2019-03-13T15:42:09.429Z,10.00
2019-03-13T15:43:17.621Z,10.00
2019-03-13T15:44:25.613Z,10.00
2019-03-13T15:45:35.781Z,9.99
2019-03-13T15:46:43.980Z,9.97
2019-03-13T15:47:52.019Z,9.93